Time;durP1;ratioP1;P1;durP2;ratioP2;P2;SDS_P1;SDS_P2;PMS_P1;PMS_P2;Temp;Humidity;BMP_temperature;BMP_pressure;BME280_temperature;BME280_humidity;BME280_pressure;Samples;Min_cycle;Max_cycle;Signal;HPM_P1;HPM_P2
2021/03/06 00:01:41;;;;;;;15.30;3.63;;;-2.60;99.90;;;;;;5068064;28;20040;-76
2021/03/06 00:04:06;;;;;;;8.48;3.03;;;-2.60;99.90;;;;;;5069131;28;20460;-76
2021/03/06 00:06:32;;;;;;;10.02;3.40;;;-2.60;99.90;;;;;;5069456;28;20046;-76
2021/03/06 00:08:58;;;;;;;4.50;3.00;;;-2.60;99.90;;;;;;5073006;28;20131;-76
2021/03/06 00:11:24;;;;;;;6.03;2.88;;;-2.70;99.90;;;;;;5083899;28;20133;-76
2021/03/06 00:13:50;;;;;;;9.68;3.22;;;-2.70;99.90;;;;;;5058295;28;20051;-76
2021/03/06 00:16:16;;;;;;;6.00;3.10;;;-2.70;99.90;;;;;;5090529;28;20047;-76
2021/03/06 00:18:41;;;;;;;7.40;3.45;;;-2.70;99.90;;;;;;5078637;28;20179;-76
2021/03/06 00:21:09;;;;;;;5.10;3.20;;;-2.70;99.90;;;;;;5070825;28;20044;-76
2021/03/06 00:23:34;;;;;;;8.15;3.40;;;-2.70;99.90;;;;;;5069998;28;20048;-76
2021/03/06 00:26:00;;;;;;;7.60;3.65;;;-2.80;99.90;;;;;;5069421;28;20044;-76
2021/03/06 00:28:26;;;;;;;10.98;3.55;;;-2.80;99.90;;;;;;5069870;28;20047;-76
2021/03/06 00:30:52;;;;;;;6.00;3.03;;;-2.80;99.90;;;;;;5069646;28;20154;-76
2021/03/06 00:33:18;;;;;;;8.57;3.00;;;-2.80;99.90;;;;;;5067762;28;20037;-76
2021/03/06 00:35:43;;;;;;;8.75;3.65;;;-2.70;99.90;;;;;;5069663;28;20119;-76
2021/03/06 00:38:10;;;;;;;6.55;3.35;;;-2.70;99.90;;;;;;5072863;28;20162;-76
2021/03/06 00:40:36;;;;;;;5.90;3.05;;;-2.70;99.90;;;;;;5090369;28;20055;-76
2021/03/06 00:43:02;;;;;;;4.15;2.50;;;-2.70;99.90;;;;;;5072531;28;20040;-76
2021/03/06 00:45:28;;;;;;;24.85;6.00;;;-2.80;99.90;;;;;;5071024;28;20067;-77
2021/03/06 00:47:53;;;;;;;6.40;2.70;;;-2.80;99.90;;;;;;5069554;28;20085;-76
2021/03/06 00:50:37;;;;;;;6.75;2.92;;;-2.80;99.90;;;;;;5068443;28;20032;-76
2021/03/06 00:53:05;;;;;;;7.78;3.20;;;-2.80;99.90;;;;;;5068919;28;20477;-76
2021/03/06 00:55:31;;;;;;;7.90;3.30;;;-2.80;99.90;;;;;;5071997;28;20050;-76
2021/03/06 00:57:58;;;;;;;6.68;3.55;;;-2.80;99.90;;;;;;5072085;28;20040;-76
2021/03/06 01:00:24;;;;;;;8.50;3.42;;;-2.90;99.90;;;;;;5071439;28;20047;-76
2021/03/06 01:02:49;;;;;;;13.68;3.72;;;-2.90;99.90;;;;;;5059998;28;20036;-76
2021/03/06 01:05:15;;;;;;;11.70;4.07;;;-2.80;99.90;;;;;;5051358;28;20058;-76
2021/03/06 01:07:41;;;;;;;8.82;3.00;;;-2.90;99.90;;;;;;5057981;28;20257;-76
2021/03/06 01:10:11;;;;;;;7.80;2.97;;;-2.90;99.90;;;;;;5064222;28;20037;-76
2021/03/06 01:12:37;;;;;;;12.52;3.10;;;-2.90;99.90;;;;;;5066152;28;20040;-76
2021/03/06 01:15:06;;;;;;;13.23;3.33;;;-2.90;99.90;;;;;;5068515;28;20067;-76
2021/03/06 01:17:31;;;;;;;5.63;2.90;;;-2.90;99.90;;;;;;5072201;28;20043;-76
2021/03/06 01:19:57;;;;;;;11.48;3.40;;;-2.90;99.90;;;;;;5063142;28;20054;-76
2021/03/06 01:22:23;;;;;;;7.55;3.05;;;-2.90;99.90;;;;;;5089487;28;20067;-76
2021/03/06 01:24:49;;;;;;;6.70;3.30;;;-2.90;99.90;;;;;;5057313;28;20041;-76
2021/03/06 01:27:15;;;;;;;10.63;3.70;;;-2.90;99.90;;;;;;5051567;28;20470;-76
2021/03/06 01:29:40;;;;;;;8.52;3.10;;;-3.00;99.90;;;;;;5061660;28;20043;-76
2021/03/06 01:32:06;;;;;;;5.10;3.25;;;-3.00;99.90;;;;;;5071031;28;20143;-76
2021/03/06 01:34:32;;;;;;;9.02;3.50;;;-3.00;99.90;;;;;;5061501;28;20737;-74
2021/03/06 01:36:58;;;;;;;5.68;3.25;;;-3.00;99.90;;;;;;5052425;28;20123;-74
2021/03/06 01:39:24;;;;;;;7.55;3.60;;;-3.00;99.90;;;;;;5071143;28;20044;-75
2021/03/06 01:41:51;;;;;;;12.70;3.38;;;-3.00;99.90;;;;;;5071054;28;20039;-75
2021/03/06 01:44:17;;;;;;;6.50;3.45;;;-3.00;99.90;;;;;;5070645;28;20082;-75
2021/03/06 01:46:43;;;;;;;5.78;3.13;;;-3.00;99.90;;;;;;5069971;28;20449;-74
2021/03/06 01:49:09;;;;;;;5.65;3.30;;;-3.10;99.90;;;;;;5071553;28;20700;-75
2021/03/06 01:51:36;;;;;;;5.53;3.03;;;-3.10;99.90;;;;;;5050316;28;20538;-75
2021/03/06 01:54:03;;;;;;;8.48;3.47;;;-3.10;99.90;;;;;;5050326;28;20059;-75
2021/03/06 01:56:32;;;;;;;6.20;3.72;;;-3.20;99.90;;;;;;5050595;28;20131;-75
2021/03/06 01:58:59;;;;;;;10.02;3.83;;;-3.20;99.90;;;;;;5071972;28;20036;-74
2021/03/06 02:01:25;;;;;;;5.50;3.05;;;-3.20;99.90;;;;;;5070027;28;20032;-72
2021/03/06 02:03:51;;;;;;;9.68;3.03;;;-3.20;99.90;;;;;;5070247;28;20101;-75
2021/03/06 02:06:18;;;;;;;9.40;3.47;;;-3.20;99.90;;;;;;5069995;28;20648;-75
2021/03/06 02:08:45;;;;;;;6.40;3.03;;;-3.20;99.90;;;;;;5071168;28;20059;-74
2021/03/06 02:11:16;;;;;;;5.35;3.30;;;-3.10;99.90;;;;;;5071671;28;20570;-75
2021/03/06 02:14:11;;;;;;;6.68;3.65;;;-3.20;99.90;;;;;;5071564;28;20083;-75
2021/03/06 02:16:42;;;;;;;10.05;4.10;;;-3.20;99.90;;;;;;5070256;28;20504;-75
2021/03/06 02:19:27;;;;;;;8.70;4.13;;;-3.20;99.90;;;;;;5073014;28;20123;-75
2021/03/06 02:22:16;;;;;;;8.02;4.07;;;-3.20;99.90;;;;;;5069653;28;20047;-75
2021/03/06 02:25:01;;;;;;;7.97;3.80;;;-3.20;99.90;;;;;;5065671;28;20108;-75
2021/03/06 02:28:12;;;;;;;11.40;3.90;;;-3.20;99.90;;;;;;5070657;28;20032;-74
2021/03/06 02:30:39;;;;;;;10.73;4.13;;;-3.20;99.90;;;;;;5069566;28;20044;-74
2021/03/06 02:33:07;;;;;;;9.02;3.70;;;-3.30;99.90;;;;;;5070405;28;20052;-75
2021/03/06 02:35:35;;;;;;;10.90;3.88;;;-3.30;99.90;;;;;;5069918;28;20119;-74
2021/03/06 02:38:10;;;;;;;12.88;4.20;;;-3.30;99.90;;;;;;5069782;28;20515;-75
2021/03/06 02:40:38;;;;;;;9.43;4.10;;;-3.30;99.90;;;;;;5070434;28;20042;-75
2021/03/06 02:43:06;;;;;;;8.88;4.05;;;-3.30;99.90;;;;;;5069867;28;20036;-75
2021/03/06 02:45:33;;;;;;;7.15;3.47;;;-3.40;99.90;;;;;;5068650;28;20190;-74
2021/03/06 02:47:59;;;;;;;7.05;3.95;;;-3.40;99.90;;;;;;5075680;28;20040;-75
2021/03/06 02:50:25;;;;;;;11.63;4.40;;;-3.30;99.90;;;;;;5061349;28;20109;-75
2021/03/06 02:52:51;;;;;;;6.78;3.90;;;-3.30;99.90;;;;;;5069930;28;20528;-75
2021/03/06 02:55:18;;;;;;;12.25;4.10;;;-3.30;99.90;;;;;;5069639;28;20108;-75
2021/03/06 02:58:11;;;;;;;8.32;3.83;;;-3.30;99.90;;;;;;5069424;28;20032;-75
2021/03/06 03:00:50;;;;;;;11.05;4.20;;;-3.30;99.90;;;;;;5086318;28;20040;-75
2021/03/06 03:03:19;;;;;;;7.78;4.05;;;-3.30;99.90;;;;;;5076070;28;20086;-74
2021/03/06 03:06:10;;;;;;;10.35;4.28;;;-3.30;99.90;;;;;;5068974;28;20036;-75
2021/03/06 03:08:57;;;;;;;8.30;3.97;;;-3.30;99.90;;;;;;5069592;28;20476;-75
2021/03/06 03:11:29;;;;;;;7.57;3.22;;;-3.30;99.90;;;;;;5062227;28;20036;-75
2021/03/06 03:13:56;;;;;;;10.90;4.43;;;-3.30;99.90;;;;;;5049605;28;20059;-75
2021/03/06 03:16:36;;;;;;;12.10;4.18;;;-3.30;99.90;;;;;;5067791;28;20044;-75
2021/03/06 03:19:12;;;;;;;10.85;4.03;;;-3.30;99.90;;;;;;5071492;28;20047;-75
2021/03/06 03:21:45;;;;;;;5.90;3.60;;;-3.40;99.90;;;;;;5084778;28;20123;-75
2021/03/06 03:24:22;;;;;;;10.90;4.13;;;-3.40;99.90;;;;;;5062804;28;20074;-74
2021/03/06 03:26:50;;;;;;;15.65;4.05;;;-3.40;99.90;;;;;;5069318;28;20054;-74
2021/03/06 03:29:16;;;;;;;10.48;4.40;;;-3.30;99.90;;;;;;5069498;28;20050;-74
2021/03/06 03:31:51;;;;;;;8.60;3.88;;;-3.40;99.90;;;;;;5068034;28;20052;-75
2021/03/06 03:34:21;;;;;;;10.00;4.38;;;-3.40;99.90;;;;;;5064400;28;20032;-75
2021/03/06 03:36:49;;;;;;;10.38;4.05;;;-3.50;99.90;;;;;;5069082;28;20059;-75
2021/03/06 03:39:15;;;;;;;7.68;3.72;;;-3.40;99.90;;;;;;5069312;28;20123;-74
2021/03/06 03:41:47;;;;;;;7.90;3.85;;;-3.50;99.90;;;;;;5071730;28;20071;-74
2021/03/06 03:44:15;;;;;;;13.55;4.28;;;-3.50;99.90;;;;;;5073383;28;20044;-75
2021/03/06 03:46:42;;;;;;;8.82;4.30;;;-3.50;99.90;;;;;;5064057;28;20389;-74
2021/03/06 03:49:14;;;;;;;8.25;3.83;;;-3.50;99.90;;;;;;5087608;28;20418;-75
2021/03/06 03:51:41;;;;;;;8.13;4.03;;;-3.40;99.90;;;;;;5067001;28;20036;-75
2021/03/06 03:54:08;;;;;;;9.38;4.00;;;-3.40;99.90;;;;;;5070095;28;20055;-74
2021/03/06 03:56:35;;;;;;;6.68;4.22;;;-3.50;99.90;;;;;;5070914;28;20476;-74
2021/03/06 03:59:01;;;;;;;8.32;4.65;;;-3.50;99.90;;;;;;5070174;28;20040;-75
2021/03/06 04:01:27;;;;;;;10.60;4.40;;;-3.40;99.90;;;;;;5074315;28;20076;-74
2021/03/06 04:03:53;;;;;;;8.90;5.13;;;-3.40;99.90;;;;;;5073937;28;20072;-74
2021/03/06 04:06:20;;;;;;;13.80;4.47;;;-3.40;99.90;;;;;;5073092;28;20078;-74
2021/03/06 04:08:46;;;;;;;8.45;4.35;;;-3.40;99.90;;;;;;5091496;28;20046;-74
2021/03/06 04:11:12;;;;;;;12.90;4.50;;;-3.40;99.90;;;;;;5067538;28;20033;-74
2021/03/06 04:13:37;;;;;;;6.60;3.80;;;-3.40;99.90;;;;;;5053239;28;20040;-75
2021/03/06 04:16:05;;;;;;;11.10;4.45;;;-3.40;99.90;;;;;;5070430;28;20424;-74
2021/03/06 04:18:30;;;;;;;6.93;4.32;;;-3.50;99.90;;;;;;5072306;28;20082;-74
2021/03/06 04:20:56;;;;;;;6.57;4.03;;;-3.50;99.90;;;;;;5064123;28;20072;-74
2021/03/06 04:23:22;;;;;;;7.50;4.05;;;-3.50;99.90;;;;;;5072882;28;20067;-74
2021/03/06 04:25:48;;;;;;;10.45;4.13;;;-3.50;99.90;;;;;;5072411;28;20315;-75
2021/03/06 04:28:14;;;;;;;9.48;3.90;;;-3.50;99.90;;;;;;5072847;28;20043;-74
2021/03/06 04:30:39;;;;;;;7.25;4.32;;;-3.50;99.90;;;;;;5072281;28;20426;-74
2021/03/06 04:33:05;;;;;;;7.28;4.10;;;-3.50;99.90;;;;;;5090704;28;20036;-75
2021/03/06 04:35:32;;;;;;;8.15;3.75;;;-3.50;99.90;;;;;;5055324;28;20094;-74
2021/03/06 04:37:58;;;;;;;12.05;4.28;;;-3.50;99.90;;;;;;5071345;28;20097;-74
2021/03/06 04:40:24;;;;;;;8.10;3.83;;;-3.50;99.90;;;;;;5072269;28;20043;-75
2021/03/06 04:42:50;;;;;;;8.90;4.20;;;-3.50;99.90;;;;;;5072719;28;20040;-74
2021/03/06 04:45:15;;;;;;;12.60;3.90;;;-3.60;99.90;;;;;;5071528;28;20040;-74
2021/03/06 04:47:45;;;;;;;8.60;4.07;;;-3.60;99.90;;;;;;5076309;28;20036;-74
2021/03/06 04:50:13;;;;;;;9.65;4.35;;;-3.60;99.90;;;;;;5076690;28;20036;-74
2021/03/06 04:52:39;;;;;;;6.93;3.92;;;-3.60;99.90;;;;;;5068904;28;20198;-74
2021/03/06 04:55:07;;;;;;;7.97;3.97;;;-3.60;99.90;;;;;;5069526;28;20127;-74
2021/03/06 04:57:33;;;;;;;8.68;4.07;;;-3.60;99.90;;;;;;5072797;28;20047;-75
2021/03/06 05:00:00;;;;;;;9.27;3.97;;;-3.60;99.90;;;;;;5072483;28;20046;-74
2021/03/06 05:02:27;;;;;;;14.00;3.97;;;-3.60;99.90;;;;;;5065274;28;20066;-74
2021/03/06 05:04:53;;;;;;;14.43;4.07;;;-3.60;99.90;;;;;;5053001;28;20048;-75
2021/03/06 05:07:18;;;;;;;7.75;3.90;;;-3.60;99.90;;;;;;5052125;28;20040;-75
2021/03/06 05:09:44;;;;;;;5.93;3.97;;;-3.60;99.90;;;;;;5052528;28;20444;-74
2021/03/06 05:12:10;;;;;;;8.55;3.63;;;-3.70;99.90;;;;;;5072056;28;20123;-74
2021/03/06 05:15:23;;;;;;;9.25;4.80;;;-3.70;99.90;;;;;;5072395;28;20066;-75
2021/03/06 05:17:48;;;;;;;5.88;3.75;;;-3.70;99.90;;;;;;5074301;28;20135;-74
2021/03/06 05:20:14;;;;;;;7.57;3.90;;;-3.70;99.90;;;;;;5081320;28;20119;-74
2021/03/06 05:22:40;;;;;;;7.68;3.67;;;-3.70;99.90;;;;;;5071919;28;20115;-74
2021/03/06 05:25:07;;;;;;;10.07;3.80;;;-3.80;99.90;;;;;;5071710;28;20272;-74
2021/03/06 05:27:32;;;;;;;7.72;3.90;;;-3.70;99.90;;;;;;5072368;28;20048;-75
2021/03/06 05:29:59;;;;;;;8.77;3.72;;;-3.70;99.90;;;;;;5072284;28;20039;-74
2021/03/06 05:32:25;;;;;;;8.70;4.03;;;-3.60;99.90;;;;;;5054928;28;20048;-74
2021/03/06 05:34:50;;;;;;;6.28;3.58;;;-3.70;99.90;;;;;;5063480;28;20040;-74
2021/03/06 05:37:16;;;;;;;8.50;3.45;;;-3.70;99.90;;;;;;5089674;28;20035;-75
2021/03/06 05:39:42;;;;;;;9.27;3.97;;;-3.90;99.90;;;;;;5071605;28;20040;-75
2021/03/06 05:42:10;;;;;;;7.75;3.70;;;-3.90;99.90;;;;;;5071171;28;20142;-75
2021/03/06 05:44:38;;;;;;;11.73;4.07;;;-3.90;99.90;;;;;;5089017;28;20044;-75
2021/03/06 05:47:05;;;;;;;10.30;4.70;;;-3.90;99.90;;;;;;5053808;28;20063;-75
2021/03/06 05:49:32;;;;;;;5.93;3.63;;;-3.90;99.90;;;;;;5077274;28;20036;-75
2021/03/06 05:52:00;;;;;;;9.27;4.18;;;-3.80;99.90;;;;;;5052651;28;20079;-75
2021/03/06 05:54:27;;;;;;;6.15;3.65;;;-3.80;99.90;;;;;;5051752;28;20135;-75
2021/03/06 05:56:54;;;;;;;9.25;4.57;;;-3.80;99.90;;;;;;5057475;28;20039;-75
2021/03/06 05:59:22;;;;;;;6.22;3.83;;;-3.80;99.90;;;;;;5071597;28;20043;-75
2021/03/06 06:01:48;;;;;;;7.47;3.90;;;-3.80;99.90;;;;;;5089122;28;20051;-75
2021/03/06 06:04:16;;;;;;;7.63;4.30;;;-3.80;99.90;;;;;;5070080;28;20036;-75
2021/03/06 06:06:45;;;;;;;7.45;3.90;;;-3.80;99.90;;;;;;5089043;28;20085;-75
2021/03/06 06:09:11;;;;;;;7.88;4.25;;;-3.80;99.90;;;;;;5070635;28;20047;-76
2021/03/06 06:11:37;;;;;;;8.30;3.72;;;-3.80;99.90;;;;;;5070965;28;20040;-75
2021/03/06 06:14:05;;;;;;;12.07;4.22;;;-3.70;99.90;;;;;;5071113;28;20040;-75
2021/03/06 06:16:32;;;;;;;5.43;3.50;;;-3.70;99.90;;;;;;5069748;28;20105;-75
2021/03/06 06:19:04;;;;;;;7.85;3.45;;;-3.70;99.90;;;;;;5062504;28;20032;-75
2021/03/06 06:21:47;;;;;;;8.52;4.07;;;-3.70;99.90;;;;;;5070439;28;20090;-75
2021/03/06 06:24:16;;;;;;;7.15;4.40;;;-3.60;99.90;;;;;;5061593;28;20536;-76
2021/03/06 06:26:59;;;;;;;14.10;4.00;;;-3.60;99.90;;;;;;5052255;28;20048;-75
2021/03/06 06:29:38;;;;;;;13.27;4.22;;;-3.60;99.90;;;;;;5070136;28;20128;-75
2021/03/06 06:32:06;;;;;;;6.38;3.33;;;-3.60;99.90;;;;;;5069994;28;20040;-75
2021/03/06 06:34:32;;;;;;;7.55;3.40;;;-3.70;99.90;;;;;;5069131;28;20048;-76
2021/03/06 06:36:58;;;;;;;12.32;3.85;;;-3.80;99.90;;;;;;5069357;28;20031;-74
2021/03/06 06:39:29;;;;;;;8.63;4.30;;;-3.70;99.90;;;;;;5063577;28;20048;-74
2021/03/06 06:41:56;;;;;;;7.05;3.55;;;-3.60;99.90;;;;;;5069061;28;20138;-75
2021/03/06 06:44:25;;;;;;;8.82;3.40;;;-3.60;99.90;;;;;;5070501;28;20586;-75
2021/03/06 06:46:52;;;;;;;6.22;3.40;;;-3.50;99.90;;;;;;5086360;28;20062;-74
2021/03/06 06:49:19;;;;;;;9.00;4.07;;;-3.40;99.90;;;;;;5072775;28;20040;-74
2021/03/06 06:52:04;;;;;;;7.85;3.67;;;-3.20;99.90;;;;;;5070199;28;20089;-75
2021/03/06 06:54:31;;;;;;;11.23;4.55;;;-3.20;99.90;;;;;;5060416;28;20036;-74
2021/03/06 06:57:18;;;;;;;5.93;3.83;;;-2.90;99.90;;;;;;5069081;28;20040;-75
2021/03/06 06:59:56;;;;;;;13.73;3.38;;;-2.60;99.90;;;;;;5069684;28;20086;-75
2021/03/06 07:02:23;;;;;;;7.50;3.40;;;-2.10;99.90;;;;;;5067805;28;20081;-74
2021/03/06 07:04:52;;;;;;;17.63;4.25;;;-1.40;99.90;;;;;;5066638;28;20049;-74
2021/03/06 07:07:21;;;;;;;6.10;2.80;;;-0.40;99.90;;;;;;5066868;28;20094;-75
2021/03/06 07:10:07;;;;;;;6.38;3.00;;;0.50;99.80;;;;;;5067328;28;20040;-74
2021/03/06 07:12:35;;;;;;;8.73;3.22;;;1.20;98.80;;;;;;5069957;28;20036;-75
2021/03/06 07:15:17;;;;;;;6.70;2.83;;;1.30;98.20;;;;;;5070728;28;20119;-75
2021/03/06 07:17:46;;;;;;;5.85;2.72;;;1.50;97.70;;;;;;5069877;28;20063;-74
2021/03/06 07:20:28;;;;;;;5.80;3.20;;;1.30;98.20;;;;;;5062039;28;20099;-75
2021/03/06 07:22:56;;;;;;;4.53;2.80;;;1.30;99.00;;;;;;5069264;28;20074;-75
2021/03/06 07:25:24;;;;;;;6.65;3.42;;;1.30;98.10;;;;;;5051546;28;20044;-76
2021/03/06 07:27:50;;;;;;;4.85;2.72;;;1.20;98.40;;;;;;5049782;28;20063;-75
2021/03/06 07:30:18;;;;;;;7.30;3.40;;;1.50;98.50;;;;;;5056847;28;20036;-76
2021/03/06 07:32:47;;;;;;;8.70;3.17;;;2.20;97.10;;;;;;5070001;28;20043;-75
2021/03/06 07:35:15;;;;;;;5.43;3.13;;;2.50;96.00;;;;;;5069304;28;20089;-76
2021/03/06 07:37:42;;;;;;;6.70;3.03;;;2.60;96.20;;;;;;5069998;28;20097;-76
2021/03/06 07:40:13;;;;;;;8.02;3.65;;;2.20;96.30;;;;;;5071194;28;20043;-76
2021/03/06 07:42:44;;;;;;;12.35;3.15;;;2.00;97.20;;;;;;5068309;28;20059;-76
2021/03/06 07:45:14;;;;;;;4.75;3.00;;;2.10;97.30;;;;;;5048805;28;20052;-76
2021/03/06 07:47:42;;;;;;;7.25;3.30;;;2.00;97.10;;;;;;5063381;28;20271;-76
2021/03/06 07:50:13;;;;;;;5.72;3.17;;;1.80;97.20;;;;;;5061414;28;20036;-76
2021/03/06 07:52:40;;;;;;;7.38;3.95;;;1.70;98.00;;;;;;5069583;28;20044;-76
2021/03/06 07:55:10;;;;;;;6.90;3.22;;;1.70;98.20;;;;;;5069048;28;20040;-76
2021/03/06 07:57:58;;;;;;;6.15;4.03;;;1.90;98.40;;;;;;5069965;28;20044;-76
2021/03/06 08:00:42;;;;;;;8.98;3.95;;;1.90;98.40;;;;;;5069607;28;20489;-76
2021/03/06 08:03:27;;;;;;;8.95;3.40;;;2.00;98.00;;;;;;5069313;28;20071;-76
2021/03/06 08:05:58;;;;;;;7.65;3.40;;;2.10;97.60;;;;;;5069079;28;20044;-76
2021/03/06 08:08:33;;;;;;;8.63;2.80;;;2.70;98.30;;;;;;5069126;28;20123;-77
2021/03/06 08:11:07;;;;;;;5.30;3.30;;;3.40;96.10;;;;;;5068840;28;20043;-75
2021/03/06 08:13:53;;;;;;;8.65;2.92;;;3.70;95.40;;;;;;5068737;28;20085;-75
2021/03/06 08:19:02;;;;;;;5.25;3.20;;;4.50;94.30;;;;;;5080648;28;20146;-76
2021/03/06 08:21:33;;;;;;;6.20;2.97;;;4.70;93.10;;;;;;5068373;28;20118;-75
2021/03/06 08:24:14;;;;;;;5.70;3.13;;;4.50;91.60;;;;;;5068212;28;20723;-75
2021/03/06 08:27:04;;;;;;;6.22;3.40;;;4.60;93.60;;;;;;5087054;28;20079;-76
2021/03/06 08:29:36;;;;;;;11.10;2.90;;;4.60;92.60;;;;;;5073047;28;20061;-76
2021/03/06 08:32:12;;;;;;;4.60;2.55;;;4.30;91.50;;;;;;5072004;28;20040;-76
2021/03/06 08:34:49;;;;;;;4.72;2.90;;;3.50;92.30;;;;;;5062896;28;20048;-76
2021/03/06 08:40:04;;;;;;;6.78;3.15;;;2.30;92.60;;;;;;5090811;28;20051;-77
2021/03/06 08:42:44;;;;;;;6.72;3.20;;;2.30;96.20;;;;;;5070200;28;20088;-77
2021/03/06 08:45:17;;;;;;;11.15;5.13;;;2.20;96.20;;;;;;5070645;28;20043;-77
2021/03/06 08:47:51;;;;;;;7.00;2.38;;;2.20;93.40;;;;;;5065548;28;20036;-77
2021/03/06 08:50:19;;;;;;;12.40;5.40;;;2.10;92.00;;;;;;5065100;28;20036;-78
2021/03/06 08:52:55;;;;;;;18.65;6.50;;;2.30;94.70;;;;;;5073052;28;20117;-77
2021/03/06 08:55:24;;;;;;;5.43;2.60;;;2.20;92.60;;;;;;5072457;28;20050;-78
2021/03/06 08:57:50;;;;;;;4.90;2.03;;;2.10;90.90;;;;;;5072968;28;20097;-77
2021/03/06 09:00:28;;;;;;;4.20;2.55;;;2.00;90.60;;;;;;5071992;28;20036;-76
2021/03/06 09:02:56;;;;;;;13.23;2.30;;;2.00;92.70;;;;;;5072280;28;20036;-76
2021/03/06 09:05:27;;;;;;;7.07;3.42;;;2.00;90.10;;;;;;5072544;28;20083;-77
2021/03/06 09:07:55;;;;;;;5.93;2.10;;;2.00;89.40;;;;;;5062902;28;20048;-78
2021/03/06 09:10:27;;;;;;;5.30;2.63;;;2.00;88.40;;;;;;5069828;28;20075;-77
2021/03/06 09:13:03;;;;;;;3.65;2.20;;;2.20;90.00;;;;;;5072302;28;20028;-77
2021/03/06 09:15:36;;;;;;;6.35;2.13;;;2.30;90.80;;;;;;5055998;28;20063;-78
2021/03/06 09:18:06;;;;;;;4.53;2.40;;;2.30;90.20;;;;;;5068089;28;20067;-77
2021/03/06 09:20:38;;;;;;;8.57;3.42;;;2.30;89.40;;;;;;5064648;28;20075;-77
2021/03/06 09:23:03;;;;;;;3.72;2.17;;;2.50;90.70;;;;;;5059531;28;20174;-78
2021/03/06 09:25:36;;;;;;;3.78;2.30;;;2.50;88.90;;;;;;5071456;28;20103;-78
2021/03/06 09:28:03;;;;;;;9.30;3.22;;;2.40;87.90;;;;;;5073185;28;20032;-78
2021/03/06 09:30:30;;;;;;;11.73;4.20;;;2.40;91.40;;;;;;5072441;28;20060;-78
2021/03/06 09:32:57;;;;;;;4.25;2.00;;;2.60;91.30;;;;;;5071723;28;20172;-77
2021/03/06 09:35:24;;;;;;;8.00;2.63;;;2.60;90.70;;;;;;5072068;28;20090;-77
2021/03/06 09:38:03;;;;;;;9.88;2.10;;;2.60;90.80;;;;;;5089694;28;20071;-78
2021/03/06 09:40:38;;;;;;;4.07;2.00;;;2.40;90.30;;;;;;5072161;28;20047;-78
2021/03/06 09:43:04;;;;;;;5.47;2.10;;;2.40;90.70;;;;;;5072024;28;20036;-78
2021/03/06 09:45:30;;;;;;;4.85;2.20;;;2.40;90.90;;;;;;5089111;28;20036;-78
2021/03/06 09:48:11;;;;;;;7.88;2.05;;;2.40;91.20;;;;;;5063252;28;20485;-77
2021/03/06 09:50:37;;;;;;;5.65;2.00;;;2.50;91.80;;;;;;5060080;28;20060;-78
2021/03/06 09:53:18;;;;;;;6.43;2.50;;;2.40;90.80;;;;;;5056020;28;20050;-78
2021/03/06 09:55:45;;;;;;;3.63;1.90;;;2.40;90.80;;;;;;5068795;28;20735;-78
2021/03/06 09:58:23;;;;;;;3.28;1.80;;;2.30;91.20;;;;;;5071692;28;20039;-79
2021/03/06 10:00:50;;;;;;;7.65;1.98;;;2.60;91.40;;;;;;5070635;28;20031;-79
2021/03/06 10:03:30;;;;;;;8.32;2.60;;;2.70;90.90;;;;;;5070353;28;20714;-79
2021/03/06 10:05:59;;;;;;;6.70;2.35;;;2.80;90.80;;;;;;5070974;28;20043;-79
2021/03/06 10:08:26;;;;;;;5.93;2.15;;;3.00;91.30;;;;;;5070145;28;20036;-79
2021/03/06 10:10:52;;;;;;;8.93;2.10;;;3.00;91.40;;;;;;5070868;28;20038;-79
2021/03/06 10:13:19;;;;;;;10.25;2.22;;;3.10;91.10;;;;;;5057379;28;20123;-80
2021/03/06 10:15:46;;;;;;;8.38;2.33;;;3.10;90.00;;;;;;5049806;28;20040;-80
2021/03/06 10:18:12;;;;;;;6.05;2.38;;;3.10;91.70;;;;;;5067689;28;20028;-80
2021/03/06 10:20:39;;;;;;;6.00;2.20;;;3.10;90.20;;;;;;5062183;28;20127;-80
2021/03/06 10:23:05;;;;;;;7.68;2.45;;;3.20;90.00;;;;;;5070877;28;20043;-78
2021/03/06 10:25:32;;;;;;;8.52;2.40;;;3.20;91.00;;;;;;5070453;28;20134;-80
2021/03/06 10:28:08;;;;;;;7.43;3.22;;;3.20;90.00;;;;;;5070464;28;20131;-79
2021/03/06 10:30:40;;;;;;;7.55;2.70;;;3.20;90.40;;;;;;5070472;28;20032;-80
2021/03/06 10:33:19;;;;;;;4.95;2.65;;;3.30;90.80;;;;;;5070490;28;20109;-80
2021/03/06 10:35:50;;;;;;;7.22;2.95;;;3.40;91.20;;;;;;5070639;28;20040;-81
2021/03/06 10:38:18;;;;;;;9.45;2.75;;;3.20;90.10;;;;;;5069855;28;20036;-81
2021/03/06 10:40:51;;;;;;;6.90;3.03;;;3.40;91.60;;;;;;5070163;28;20040;-80
2021/03/06 10:43:30;;;;;;;4.55;2.47;;;3.50;90.10;;;;;;5070583;28;20035;-80
2021/03/06 10:46:07;;;;;;;5.07;2.83;;;3.60;90.40;;;;;;5088491;28;20481;-81
2021/03/06 10:48:34;;;;;;;7.97;3.72;;;3.60;90.00;;;;;;5075857;28;20048;-80
2021/03/06 10:50:59;;;;;;;5.57;3.20;;;3.50;90.20;;;;;;5061516;28;20401;-81
2021/03/06 10:53:27;;;;;;;10.52;3.35;;;3.30;90.90;;;;;;5065902;28;20131;-80
2021/03/06 10:55:54;;;;;;;7.88;3.17;;;3.50;91.70;;;;;;5068476;28;20282;-81
2021/03/06 10:58:39;;;;;;;7.70;3.42;;;3.50;90.90;;;;;;5070896;28;20044;-80
2021/03/06 11:01:05;;;;;;;5.53;3.63;;;3.70;90.80;;;;;;5069598;28;20044;-80
2021/03/06 11:03:43;;;;;;;4.93;3.15;;;3.60;91.30;;;;;;5070251;28;20093;-80
2021/03/06 11:06:10;;;;;;;5.30;3.10;;;3.70;90.80;;;;;;5070221;28;20047;-80
2021/03/06 11:08:36;;;;;;;12.38;3.67;;;3.70;90.60;;;;;;5069871;28;20035;-80
2021/03/06 11:11:04;;;;;;;8.00;3.30;;;3.70;91.10;;;;;;5071038;28;20036;-82
2021/03/06 11:13:44;;;;;;;11.90;3.45;;;3.40;90.40;;;;;;5070185;28;20051;-82
2021/03/06 11:16:12;;;;;;;11.32;3.25;;;3.40;91.10;;;;;;5067596;28;20136;-80
2021/03/06 11:18:42;;;;;;;11.30;3.22;;;3.50;91.20;;;;;;5082804;28;20579;-82
2021/03/06 11:21:13;;;;;;;6.80;3.20;;;3.40;91.20;;;;;;5088515;28;20063;-81
2021/03/06 11:23:41;;;;;;;9.27;2.97;;;3.20;89.80;;;;;;5079090;28;20032;-80
2021/03/06 11:26:07;;;;;;;6.85;3.30;;;3.30;92.30;;;;;;5069376;28;20036;-81
2021/03/06 11:28:33;;;;;;;10.38;3.40;;;3.40;90.40;;;;;;5070789;28;20040;-80
2021/03/06 11:31:00;;;;;;;11.63;3.67;;;3.50;91.20;;;;;;5069783;28;20040;-79
2021/03/06 11:33:26;;;;;;;8.98;3.65;;;3.40;91.60;;;;;;5070673;28;20464;-80
2021/03/06 11:35:52;;;;;;;12.38;3.38;;;3.20;92.80;;;;;;5065993;28;20119;-81
2021/03/06 11:38:20;;;;;;;10.32;3.47;;;3.30;93.70;;;;;;5049520;28;20039;-79
2021/03/06 11:40:52;;;;;;;13.50;4.43;;;3.30;92.40;;;;;;5050618;28;20076;-80
2021/03/06 11:43:18;;;;;;;12.23;3.38;;;3.10;92.40;;;;;;5063844;28;20040;-81
2021/03/06 11:45:44;;;;;;;11.50;3.47;;;3.10;92.90;;;;;;5068927;28;20051;-80
2021/03/06 11:48:11;;;;;;;6.72;3.20;;;3.20;92.00;;;;;;5075791;28;20063;-79
2021/03/06 11:50:39;;;;;;;6.35;3.30;;;3.40;91.80;;;;;;5061311;28;20083;-80
2021/03/06 11:53:05;;;;;;;10.70;3.60;;;3.30;90.80;;;;;;5066023;28;20179;-79
2021/03/06 11:55:32;;;;;;;6.10;2.80;;;3.40;91.80;;;;;;5069587;28;20048;-82
2021/03/06 11:57:58;;;;;;;8.50;3.65;;;3.40;90.90;;;;;;5069429;28;20551;-80
2021/03/06 12:00:26;;;;;;;9.80;3.20;;;3.50;91.60;;;;;;5069631;28;20054;-81
2021/03/06 12:02:52;;;;;;;7.35;2.67;;;3.60;91.30;;;;;;5089015;28;20419;-80
2021/03/06 12:05:18;;;;;;;9.73;3.05;;;3.60;90.40;;;;;;5073685;28;20079;-80
2021/03/06 12:07:46;;;;;;;8.00;3.35;;;3.50;90.40;;;;;;5073231;28;20042;-79
2021/03/06 12:10:14;;;;;;;7.30;2.95;;;3.50;88.40;;;;;;5072856;28;20040;-81
2021/03/06 12:12:42;;;;;;;11.43;3.10;;;3.30;90.00;;;;;;5073712;28;20115;-82
2021/03/06 12:15:08;;;;;;;6.88;2.67;;;3.40;90.10;;;;;;5073072;28;20047;-81
2021/03/06 12:17:34;;;;;;;5.40;2.28;;;3.50;89.50;;;;;;5090797;28;20101;-81
2021/03/06 12:20:00;;;;;;;11.55;2.90;;;3.50;89.10;;;;;;5078305;28;20661;-81
2021/03/06 12:22:25;;;;;;;;;;;3.50;90.40;;;;;;5057352;28;20076;-81
2021/03/06 12:24:51;;;;;;;14.30;2.63;;;3.40;89.40;;;;;;5072539;28;19967;-81
2021/03/06 12:27:17;;;;;;;5.57;2.63;;;3.50;90.20;;;;;;5072378;28;20036;-79
2021/03/06 12:29:43;;;;;;;10.30;3.88;;;3.50;90.00;;;;;;5072977;28;20055;-80
2021/03/06 12:32:09;;;;;;;8.88;3.40;;;3.70;90.10;;;;;;5066280;28;20037;-80
2021/03/06 12:34:35;;;;;;;8.80;2.95;;;3.80;90.40;;;;;;5063615;28;20050;-80
2021/03/06 12:37:01;;;;;;;13.57;2.22;;;3.90;88.30;;;;;;5073889;28;20726;-82
2021/03/06 12:39:27;;;;;;;6.80;2.10;;;3.90;90.30;;;;;;5072617;28;20040;-81
2021/03/06 12:41:53;;;;;;;5.78;2.05;;;3.90;88.00;;;;;;5072577;28;20096;-82
2021/03/06 12:44:19;;;;;;;;;;;3.90;87.30;;;;;;5073161;28;20400;-81
2021/03/06 12:46:47;;;;;;;4.13;2.22;;;3.80;84.90;;;;;;5072180;28;20428;-81
2021/03/06 12:49:16;;;;;;;10.57;2.47;;;3.80;83.60;;;;;;5074350;28;20432;-82
2021/03/06 12:51:42;;;;;;;6.80;1.85;;;3.80;83.30;;;;;;5073126;28;20044;-81
2021/03/06 12:54:08;;;;;;;6.68;1.85;;;3.90;84.40;;;;;;5072024;28;20055;-81
2021/03/06 12:56:34;;;;;;;6.97;2.80;;;3.80;83.90;;;;;;5072328;28;20028;-81
2021/03/06 12:59:00;;;;;;;6.05;2.00;;;3.90;86.50;;;;;;5072535;28;20134;-80
2021/03/06 13:01:26;;;;;;;6.88;1.80;;;3.80;83.90;;;;;;5071754;28;20093;-80
2021/03/06 13:03:52;;;;;;;4.75;1.77;;;3.90;82.50;;;;;;5067778;28;20407;-81
2021/03/06 13:06:18;;;;;;;4.82;1.52;;;3.90;83.20;;;;;;5059227;28;20111;-79
2021/03/06 13:08:44;;;;;;;3.72;1.60;;;3.90;84.00;;;;;;5072586;28;20127;-81